Time;durP1;ratioP1;P1;durP2;ratioP2;P2;SDS_P1;SDS_P2;PMS_P1;PMS_P2;Temp;Humidity;BMP_temperature;BMP_pressure;BME280_temperature;BME280_humidity;BME280_pressure;Samples;Min_cycle;Max_cycle;Signal;HPM_P1;HPM_P2
2023/05/13 00:01:49;;;;;;;13.13;8.65;;;;;;;9.29;100.00;98765.19;4182989;28;20356;-74
2023/05/13 00:03:49;;;;;;;11.25;7.63;;;;;;;9.26;100.00;98768.66;4182450;28;20028;-73
2023/05/13 00:05:50;;;;;;;10.13;7.60;;;;;;;9.31;100.00;98779.41;4184528;28;20036;-73
2023/05/13 00:07:50;;;;;;;10.80;7.88;;;;;;;9.28;100.00;98777.38;4183178;28;20358;-73
2023/05/13 00:09:50;;;;;;;10.43;7.82;;;;;;;9.22;100.00;98774.09;4182885;28;20112;-73
2023/05/13 00:11:51;;;;;;;14.50;7.80;;;;;;;9.18;100.00;98775.19;4181713;28;20090;-73
2023/05/13 00:13:51;;;;;;;7.90;7.10;;;;;;;9.12;100.00;98771.91;4182104;28;20029;-73
2023/05/13 00:15:52;;;;;;;11.48;7.43;;;;;;;9.13;100.00;98769.94;4176994;28;20094;-74
2023/05/13 00:17:52;;;;;;;11.80;8.02;;;;;;;9.18;100.00;98775.97;4182571;28;20416;-73
2023/05/13 00:19:52;;;;;;;10.23;7.50;;;;;;;9.17;100.00;98774.38;4182445;28;20043;-73
2023/05/13 00:21:53;;;;;;;11.93;7.82;;;;;;;9.11;100.00;98766.75;4181648;28;20067;-73
2023/05/13 00:23:53;;;;;;;10.40;7.57;;;;;;;9.11;100.00;98772.28;4181799;28;20100;-73
2023/05/13 00:25:53;;;;;;;10.50;7.35;;;;;;;9.14;100.00;98774.31;4182797;28;20041;-73
2023/05/13 00:27:54;;;;;;;11.15;7.82;;;;;;;9.13;100.00;98778.22;4177802;28;20112;-73
2023/05/13 00:29:54;;;;;;;8.43;7.45;;;;;;;8.96;100.00;98777.47;4183082;28;20025;-73
2023/05/13 00:31:54;;;;;;;9.88;7.72;;;;;;;8.87;100.00;98782.41;4180771;28;20036;-73
2023/05/13 00:33:55;;;;;;;8.13;7.03;;;;;;;8.78;100.00;98781.00;4180942;28;20029;-74
2023/05/13 00:35:55;;;;;;;12.68;8.75;;;;;;;8.70;100.00;98791.88;4185835;28;20528;-73
2023/05/13 00:37:55;;;;;;;11.77;7.88;;;;;;;8.57;100.00;98781.28;4181709;28;20028;-74
2023/05/13 00:39:56;;;;;;;11.02;7.05;;;;;;;8.54;100.00;98784.75;4179727;28;20032;-74
2023/05/13 00:41:58;;;;;;;10.80;6.95;;;;;;;8.64;100.00;98782.25;4179748;28;20116;-73
2023/05/13 00:43:58;;;;;;;10.43;6.80;;;;;;;8.75;100.00;98787.22;4181240;28;20025;-73
2023/05/13 00:45:59;;;;;;;10.30;7.22;;;;;;;8.77;100.00;98782.97;4178570;28;20109;-73
2023/05/13 00:47:59;;;;;;;11.40;7.35;;;;;;;8.72;100.00;98791.50;4179845;28;20043;-73
2023/05/13 00:49:59;;;;;;;8.13;6.65;;;;;;;8.66;100.00;98790.97;4181260;28;20398;-73
2023/05/13 00:52:00;;;;;;;7.72;6.93;;;;;;;8.69;100.00;98792.22;4180856;28;20021;-73
2023/05/13 00:54:01;;;;;;;8.93;7.20;;;;;;;8.73;100.00;98788.38;4180093;28;20028;-73
2023/05/13 00:56:01;;;;;;;13.40;7.50;;;;;;;8.63;100.00;98790.88;4182287;28;20078;-73
2023/05/13 00:58:01;;;;;;;10.80;6.95;;;;;;;8.53;100.00;98788.69;4183747;28;20036;-73
2023/05/13 01:00:04;;;;;;;9.15;8.05;;;;;;;8.43;100.00;98792.75;4179590;28;20032;-73
2023/05/13 01:02:04;;;;;;;;;;;;;;;8.37;100.00;98789.47;4184993;28;20033;-73
2023/05/13 01:04:19;;;;;;;8.13;6.30;;;;;;;8.23;100.00;98794.59;4182511;28;19912;-73
2023/05/13 01:06:43;;;;;;;14.07;7.72;;;;;;;8.16;100.00;98794.41;4179779;28;20028;-73
2023/05/13 01:09:04;;;;;;;9.07;7.38;;;;;;;8.13;100.00;98789.63;4179317;28;20402;-73
2023/05/13 01:11:18;;;;;;;9.75;7.50;;;;;;;8.08;100.00;98789.88;4177559;28;20025;-73
2023/05/13 01:13:30;;;;;;;10.52;7.68;;;;;;;8.03;100.00;98787.38;4181902;28;20062;-73
2023/05/13 01:15:30;;;;;;;12.80;8.30;;;;;;;7.98;100.00;98780.16;4178092;28;20516;-73
2023/05/13 01:17:36;;;;;;;10.40;7.53;;;;;;;7.91;100.00;98788.22;4182247;28;20024;-73
2023/05/13 01:19:55;;;;;;;12.85;7.55;;;;;;;7.88;100.00;98783.44;4181909;28;20029;-73
2023/05/13 01:21:55;;;;;;;12.90;7.22;;;;;;;7.92;100.00;98786.28;4183240;28;20033;-73
2023/05/13 01:23:55;;;;;;;8.90;7.15;;;;;;;7.89;100.00;98793.31;4183452;28;20028;-73
2023/05/13 01:25:56;;;;;;;9.05;7.00;;;;;;;7.88;100.00;98792.50;4180783;28;20627;-73
2023/05/13 01:27:56;;;;;;;10.27;7.00;;;;;;;7.91;100.00;98790.19;4185139;28;20032;-73
2023/05/13 01:29:57;;;;;;;9.75;7.00;;;;;;;7.97;100.00;98794.31;4184247;28;20319;-73
2023/05/13 01:31:59;;;;;;;8.73;7.43;;;;;;;7.94;100.00;98803.25;4185494;28;20085;-73
2023/05/13 01:33:59;;;;;;;11.55;7.22;;;;;;;7.75;100.00;98790.16;4184022;28;20032;-73
2023/05/13 01:36:01;;;;;;;11.95;7.50;;;;;;;7.69;100.00;98800.59;4181200;28;20048;-73
2023/05/13 01:38:03;;;;;;;11.27;7.40;;;;;;;7.69;100.00;98795.09;4184743;28;20025;-73
2023/05/13 01:40:05;;;;;;;10.30;7.25;;;;;;;7.70;100.00;98793.19;4181462;28;20297;-73
2023/05/13 01:42:05;;;;;;;10.60;6.37;;;;;;;7.71;100.00;98795.56;4186345;28;20059;-73
2023/05/13 01:44:06;;;;;;;10.82;7.63;;;;;;;7.70;100.00;98796.72;4183546;28;20559;-73
2023/05/13 01:46:12;;;;;;;10.00;7.00;;;;;;;7.69;100.00;98794.31;4186701;28;20555;-73
2023/05/13 01:48:13;;;;;;;11.45;8.10;;;;;;;7.59;100.00;98790.09;4182664;28;20066;-73
2023/05/13 01:50:13;;;;;;;10.27;6.45;;;;;;;7.50;100.00;98792.22;4179600;28;20025;-73
2023/05/13 01:52:13;;;;;;;8.75;6.70;;;;;;;7.43;100.00;98795.56;4185991;28;20055;-72
2023/05/13 01:54:14;;;;;;;7.85;6.43;;;;;;;7.36;100.00;98792.59;4186797;28;20016;-73
2023/05/13 01:56:14;;;;;;;9.52;7.00;;;;;;;7.31;100.00;98796.41;4184469;28;20029;-73
2023/05/13 01:58:14;;;;;;;10.15;7.22;;;;;;;7.29;100.00;98798.72;4181255;28;20497;-73
2023/05/13 02:00:15;;;;;;;9.70;7.38;;;;;;;7.28;100.00;98801.78;4180640;28;20108;-73
2023/05/13 02:02:15;;;;;;;10.00;7.00;;;;;;;7.25;100.00;98799.75;4185047;28;20036;-73
2023/05/13 02:04:15;;;;;;;8.23;6.88;;;;;;;7.29;100.00;98798.72;4183570;28;20370;-73
2023/05/13 02:06:16;;;;;;;12.45;7.55;;;;;;;7.28;100.00;98813.63;4184916;28;20606;-73
2023/05/13 02:08:16;;;;;;;11.50;6.90;;;;;;;7.33;100.00;98799.59;4178465;28;20162;-73
2023/05/13 02:10:16;;;;;;;9.30;7.10;;;;;;;7.36;100.00;98802.81;4184980;28;20443;-73
2023/05/13 02:12:17;;;;;;;8.40;6.68;;;;;;;7.28;100.00;98799.03;4182454;28;20068;-73
2023/05/13 02:14:17;;;;;;;9.07;7.18;;;;;;;7.21;100.00;98805.16;4183385;28;20361;-73
2023/05/13 02:16:21;;;;;;;12.93;7.88;;;;;;;7.18;100.00;98805.84;4188732;28;20028;-74
2023/05/13 02:18:21;;;;;;;11.60;7.70;;;;;;;7.15;100.00;98803.78;4183656;28;20025;-73
2023/05/13 02:20:21;;;;;;;10.52;7.88;;;;;;;7.14;100.00;98804.94;4181408;28;20036;-73
2023/05/13 02:22:22;;;;;;;10.30;8.68;;;;;;;7.19;100.00;98807.44;4179856;28;20024;-74
2023/05/13 02:24:22;;;;;;;11.43;8.68;;;;;;;7.16;100.00;98808.13;4184111;28;20095;-74
2023/05/13 02:26:23;;;;;;;14.43;8.15;;;;;;;7.18;100.00;98818.78;4185430;28;20529;-74
2023/05/13 02:28:23;;;;;;;11.77;8.38;;;;;;;7.18;100.00;98814.09;4179548;28;20091;-74
2023/05/13 02:30:25;;;;;;;11.68;7.85;;;;;;;7.16;100.00;98807.34;4185101;28;20047;-74
2023/05/13 02:32:26;;;;;;;12.63;7.20;;;;;;;7.21;100.00;98810.66;4178132;28;20423;-74
2023/05/13 02:34:26;;;;;;;13.77;7.63;;;;;;;7.20;100.00;98810.97;4185992;28;20036;-74
2023/05/13 02:36:26;;;;;;;10.88;7.60;;;;;;;7.13;100.00;98797.03;4185787;28;20150;-74
2023/05/13 02:38:27;;;;;;;10.63;6.93;;;;;;;7.11;100.00;98804.81;4184560;28;20056;-73
2023/05/13 02:40:27;;;;;;;12.18;7.70;;;;;;;7.11;100.00;98807.56;4182029;28;20028;-74
2023/05/13 02:42:28;;;;;;;10.90;6.63;;;;;;;7.17;100.00;98806.97;4179019;28;20425;-73
2023/05/13 02:44:28;;;;;;;10.88;7.43;;;;;;;7.19;100.00;98804.69;4183002;28;20028;-73
2023/05/13 02:46:29;;;;;;;8.98;7.00;;;;;;;7.22;100.00;98811.47;4178555;28;20044;-73
2023/05/13 02:48:29;;;;;;;12.70;6.90;;;;;;;7.26;100.00;98804.91;4185405;28;20033;-73
2023/05/13 02:50:30;;;;;;;9.02;6.30;;;;;;;7.24;100.00;98801.69;4185029;28;20024;-73
2023/05/13 02:52:30;;;;;;;9.48;6.75;;;;;;;7.19;100.00;98801.94;4179956;28;20137;-73
2023/05/13 02:54:31;;;;;;;10.88;6.97;;;;;;;7.14;100.00;98807.69;4181759;28;20020;-73
2023/05/13 02:56:31;;;;;;;9.93;7.13;;;;;;;7.13;100.00;98805.28;4181072;28;20106;-73
2023/05/13 02:58:31;;;;;;;18.38;7.00;;;;;;;7.14;100.00;98801.38;4183764;28;20205;-73
2023/05/13 03:00:31;;;;;;;9.57;7.10;;;;;;;7.12;100.00;98795.44;4183141;28;20441;-73
2023/05/13 03:02:32;;;;;;;9.23;7.32;;;;;;;7.03;100.00;98798.28;4182902;28;20060;-74
2023/05/13 03:04:33;;;;;;;8.68;7.13;;;;;;;7.02;100.00;98802.19;4182874;28;20052;-73
2023/05/13 03:06:33;;;;;;;12.60;7.43;;;;;;;7.10;100.00;98809.50;4184442;28;20062;-73
2023/05/13 03:08:33;;;;;;;9.88;7.22;;;;;;;7.15;100.00;98802.97;4179520;28;20376;-73
2023/05/13 03:10:34;;;;;;;8.95;6.10;;;;;;;7.12;100.00;98801.75;4182724;28;20478;-73
2023/05/13 03:12:34;;;;;;;10.93;7.90;;;;;;;7.08;100.00;98809.06;4178580;28;20032;-73
2023/05/13 03:14:35;;;;;;;10.05;6.95;;;;;;;6.97;100.00;98802.44;4179881;28;20020;-73
2023/05/13 03:16:36;;;;;;;12.02;7.05;;;;;;;6.94;100.00;98800.38;4182010;28;20025;-73
2023/05/13 03:18:36;;;;;;;13.20;7.72;;;;;;;6.86;100.00;98795.78;4184726;28;20166;-73
2023/05/13 03:20:37;;;;;;;9.77;7.13;;;;;;;6.87;100.00;98808.41;4186097;28;20032;-74
2023/05/13 03:22:37;;;;;;;10.95;6.82;;;;;;;6.86;100.00;98798.53;4177893;28;20472;-74
2023/05/13 03:24:37;;;;;;;8.88;7.25;;;;;;;6.82;100.00;98806.69;4182465;28;20056;-73
2023/05/13 03:26:38;;;;;;;11.25;7.07;;;;;;;6.75;100.00;98809.22;4179252;28;20298;-73
2023/05/13 03:28:38;;;;;;;10.73;7.03;;;;;;;6.69;100.00;98811.38;4182755;28;20032;-73
2023/05/13 03:30:38;;;;;;;9.82;6.60;;;;;;;6.66;100.00;98805.78;4183441;28;20091;-73
2023/05/13 03:32:39;;;;;;;9.73;7.05;;;;;;;6.64;100.00;98816.34;4179144;28;20032;-74
2023/05/13 03:34:39;;;;;;;11.68;7.43;;;;;;;6.68;100.00;98811.75;4185651;28;20035;-73
2023/05/13 03:36:40;;;;;;;11.43;6.88;;;;;;;6.70;100.00;98803.94;4182013;28;20028;-73
2023/05/13 03:38:40;;;;;;;12.80;7.00;;;;;;;6.61;100.00;98795.81;4182018;28;20024;-73
2023/05/13 03:40:40;;;;;;;9.60;6.80;;;;;;;6.57;100.00;98797.66;4183895;28;20460;-73
2023/05/13 03:42:41;;;;;;;8.85;6.68;;;;;;;6.55;100.00;98805.47;4176020;28;20029;-73
2023/05/13 03:44:41;;;;;;;9.35;6.97;;;;;;;6.55;100.00;98804.66;4182776;28;20025;-73
2023/05/13 03:46:42;;;;;;;15.57;7.55;;;;;;;6.53;100.00;98807.72;4182801;28;20139;-73
2023/05/13 03:48:43;;;;;;;13.27;7.00;;;;;;;6.55;100.00;98813.69;4184085;28;20041;-73
2023/05/13 03:50:44;;;;;;;7.55;6.50;;;;;;;6.48;100.00;98806.00;4182658;28;20037;-73
2023/05/13 03:52:45;;;;;;;8.90;7.53;;;;;;;6.47;100.00;98811.88;4184143;28;20108;-73
2023/05/13 03:54:45;;;;;;;10.38;7.10;;;;;;;6.43;100.00;98811.72;4178324;28;20024;-73
2023/05/13 03:56:46;;;;;;;8.52;6.80;;;;;;;6.44;100.00;98815.28;4183102;28;20116;-73
2023/05/13 03:58:46;;;;;;;10.75;7.63;;;;;;;6.43;100.00;98814.47;4184251;28;20087;-73
2023/05/13 04:00:47;;;;;;;8.70;7.40;;;;;;;6.45;100.00;98816.88;4181993;28;20036;-73
2023/05/13 04:02:47;;;;;;;10.30;7.07;;;;;;;6.49;100.00;98817.81;4179335;28;20134;-73
2023/05/13 04:04:47;;;;;;;8.45;6.43;;;;;;;6.50;100.00;98811.16;4181939;28;20032;-73
2023/05/13 04:06:48;;;;;;;8.98;7.32;;;;;;;6.51;100.00;98825.72;4185026;28;20309;-73
2023/05/13 04:08:50;;;;;;;7.90;6.35;;;;;;;6.53;100.00;98823.41;4182606;28;20021;-73
2023/05/13 04:10:50;;;;;;;11.60;7.55;;;;;;;6.51;100.00;98822.97;4181274;28;20092;-73
2023/05/13 04:12:51;;;;;;;12.07;7.72;;;;;;;6.50;100.00;98816.66;4181911;28;20036;-73
2023/05/13 04:14:51;;;;;;;10.15;7.32;;;;;;;6.50;100.00;98811.16;4183221;28;20028;-74
2023/05/13 04:16:51;;;;;;;9.15;6.47;;;;;;;6.52;100.00;98814.38;4179792;28;20024;-74
2023/05/13 04:18:52;;;;;;;10.32;6.55;;;;;;;6.57;100.00;98829.84;4182665;28;20526;-73
2023/05/13 04:20:52;;;;;;;10.80;6.20;;;;;;;6.59;100.00;98824.81;4174924;28;20384;-73
2023/05/13 04:22:52;;;;;;;9.98;7.57;;;;;;;6.67;100.00;98827.44;4181480;28;20056;-73
2023/05/13 04:24:55;;;;;;;9.45;6.32;;;;;;;6.75;100.00;98832.03;4181260;28;20029;-74
2023/05/13 04:26:55;;;;;;;9.95;6.70;;;;;;;6.81;100.00;98840.06;4183504;28;20029;-73
2023/05/13 04:28:56;;;;;;;8.32;6.50;;;;;;;6.83;100.00;98830.31;4179769;28;20380;-73
2023/05/13 04:30:56;;;;;;;7.65;5.82;;;;;;;6.85;100.00;98828.00;4185140;28;20033;-74
2023/05/13 04:32:56;;;;;;;7.20;6.50;;;;;;;6.87;100.00;98824.91;4178869;28;20029;-73
2023/05/13 04:34:56;;;;;;;8.48;6.60;;;;;;;6.94;100.00;98825.94;4182345;28;20104;-73
2023/05/13 04:36:57;;;;;;;8.75;5.97;;;;;;;7.02;100.00;98836.00;4181724;28;20021;-73
2023/05/13 04:38:57;;;;;;;7.88;6.38;;;;;;;7.10;100.00;98823.28;4182750;28;20380;-73
2023/05/13 04:40:57;;;;;;;9.35;5.93;;;;;;;7.16;100.00;98832.09;4182820;28;20441;-73
2023/05/13 04:42:58;;;;;;;7.82;5.80;;;;;;;7.26;100.00;98834.38;4184550;28;20029;-73
2023/05/13 04:44:58;;;;;;;7.63;6.00;;;;;;;7.35;100.00;98839.75;4183936;28;20388;-73
2023/05/13 04:46:58;;;;;;;9.07;7.30;;;;;;;7.43;100.00;98841.56;4179503;28;20029;-73
2023/05/13 04:48:59;;;;;;;11.77;6.82;;;;;;;7.45;100.00;98834.56;4185185;28;20032;-73
2023/05/13 04:50:59;;;;;;;10.50;6.72;;;;;;;7.50;100.00;98836.25;4177843;28;20497;-73
2023/05/13 04:52:59;;;;;;;9.43;6.75;;;;;;;7.57;100.00;98845.53;4181260;28;20034;-73
2023/05/13 04:55:00;;;;;;;8.75;6.43;;;;;;;7.67;100.00;98848.94;4179999;28;20072;-73
2023/05/13 04:57:01;;;;;;;8.75;7.03;;;;;;;7.73;100.00;98842.03;4181462;28;20073;-73
2023/05/13 04:59:01;;;;;;;7.25;6.47;;;;;;;7.80;100.00;98848.56;4183609;28;20683;-73
2023/05/13 05:01:01;;;;;;;8.30;6.85;;;;;;;7.84;100.00;98843.13;4179434;28;20033;-73
2023/05/13 05:03:02;;;;;;;8.60;6.60;;;;;;;7.84;100.00;98843.13;4181044;28;20292;-73
2023/05/13 05:05:02;;;;;;;9.38;6.88;;;;;;;7.86;100.00;98851.84;4181860;28;20028;-73
2023/05/13 05:07:03;;;;;;;7.57;6.65;;;;;;;7.90;100.00;98850.00;4182851;28;20194;-73
2023/05/13 05:09:03;;;;;;;8.32;7.13;;;;;;;7.92;100.00;98841.38;4177836;28;20021;-73
2023/05/13 05:11:04;;;;;;;12.18;6.75;;;;;;;7.99;100.00;98850.66;4182155;28;20076;-73
2023/05/13 05:13:04;;;;;;;11.52;7.45;;;;;;;8.03;100.00;98842.50;4183260;28;20033;-73
2023/05/13 05:15:05;;;;;;;8.55;6.50;;;;;;;8.08;100.00;98847.72;4183290;28;20017;-73
2023/05/13 05:17:06;;;;;;;7.35;6.38;;;;;;;8.16;100.00;98852.28;4181378;28;20109;-73
2023/05/13 05:19:06;;;;;;;8.30;7.13;;;;;;;8.24;100.00;98851.31;4180094;28;20041;-73
2023/05/13 05:21:06;;;;;;;9.25;7.05;;;;;;;8.35;100.00;98857.13;4177614;28;20126;-73
2023/05/13 05:23:09;;;;;;;7.53;6.32;;;;;;;8.42;100.00;98854.56;4179770;28;20032;-74
2023/05/13 05:25:10;;;;;;;9.10;6.80;;;;;;;8.52;100.00;98854.03;4182478;28;20037;-73
2023/05/13 05:27:10;;;;;;;9.23;6.30;;;;;;;8.63;100.00;98846.84;4178101;28;20101;-73
2023/05/13 05:29:11;;;;;;;9.30;6.57;;;;;;;8.83;100.00;98856.00;4179937;28;20028;-73
2023/05/13 05:31:11;;;;;;;7.82;6.13;;;;;;;9.01;100.00;98851.69;4178784;28;20025;-73
2023/05/13 05:33:12;;;;;;;9.35;6.13;;;;;;;9.22;100.00;98858.88;4175332;28;20159;-73
2023/05/13 05:35:12;;;;;;;7.32;5.68;;;;;;;9.42;100.00;98854.19;4180449;28;20770;-73
2023/05/13 05:37:12;;;;;;;6.80;6.03;;;;;;;9.57;100.00;98856.91;4177352;28;20047;-73
2023/05/13 05:39:12;;;;;;;9.43;6.60;;;;;;;9.70;100.00;98865.06;4178953;28;20036;-73
2023/05/13 05:41:13;;;;;;;9.40;6.32;;;;;;;9.78;100.00;98862.09;4183141;28;20036;-73
2023/05/13 05:43:13;;;;;;;8.38;6.30;;;;;;;9.82;100.00;98862.16;4180862;28;20059;-73
2023/05/13 05:45:14;;;;;;;7.20;5.30;;;;;;;9.88;100.00;98866.25;4179269;28;20649;-73
2023/05/13 05:47:14;;;;;;;7.88;5.32;;;;;;;9.97;100.00;98864.03;4176774;28;20174;-73
2023/05/13 05:49:14;;;;;;;6.93;5.50;;;;;;;10.06;100.00;98864.63;4179233;28;20575;-73
2023/05/13 05:51:15;;;;;;;10.23;6.88;;;;;;;10.14;100.00;98871.09;4177582;28;20021;-74
2023/05/13 05:53:15;;;;;;;7.88;6.15;;;;;;;10.19;100.00;98864.47;4181314;28;20023;-74
2023/05/13 05:55:15;;;;;;;10.18;7.13;;;;;;;10.25;100.00;98866.59;4181832;28;20121;-74
2023/05/13 05:57:16;;;;;;;7.40;6.38;;;;;;;10.32;100.00;98868.69;4177913;28;20041;-74
2023/05/13 05:59:16;;;;;;;9.50;6.00;;;;;;;10.40;100.00;98865.69;4179025;28;20021;-74
2023/05/13 06:01:16;;;;;;;8.55;6.07;;;;;;;10.51;100.00;98863.13;4182476;28;20428;-74
2023/05/13 06:03:16;;;;;;;7.20;6.20;;;;;;;10.57;100.00;98861.63;4183410;28;20509;-74
2023/05/13 06:05:17;;;;;;;9.63;5.78;;;;;;;10.62;100.00;98860.53;4181427;28;20031;-74
2023/05/13 06:07:17;;;;;;;7.18;6.15;;;;;;;10.72;100.00;98864.66;4184445;28;20261;-73
2023/05/13 06:09:18;;;;;;;7.43;6.10;;;;;;;10.81;100.00;98866.00;4183573;28;20135;-73
2023/05/13 06:11:18;;;;;;;7.18;5.97;;;;;;;10.91;100.00;98859.03;4183809;28;20544;-73
2023/05/13 06:13:18;;;;;;;6.38;5.50;;;;;;;10.96;100.00;98864.28;4181955;28;20031;-73
2023/05/13 06:15:19;;;;;;;7.95;6.18;;;;;;;11.00;100.00;98856.81;4181694;28;20178;-73
2023/05/13 06:17:19;;;;;;;7.90;5.82;;;;;;;11.02;100.00;98862.00;4183091;28;20031;-74
2023/05/13 06:19:19;;;;;;;9.90;6.30;;;;;;;11.04;100.00;98865.19;4124712;27;20345;-74
2023/05/13 06:21:20;;;;;;;10.70;6.18;;;;;;;11.07;100.00;98862.47;4186537;28;20068;-74
2023/05/13 06:23:20;;;;;;;7.72;6.60;;;;;;;11.11;100.00;98866.09;4182874;28;20099;-74
2023/05/13 06:25:20;;;;;;;7.55;5.88;;;;;;;11.10;100.00;98861.75;4181636;28;20064;-74
2023/05/13 06:27:21;;;;;;;8.23;6.65;;;;;;;11.13;100.00;98865.72;4182048;28;20340;-74
2023/05/13 06:29:21;;;;;;;8.18;6.68;;;;;;;11.16;100.00;98868.53;4182970;28;20111;-74
2023/05/13 06:31:21;;;;;;;7.53;6.32;;;;;;;11.13;100.00;98862.94;4181932;28;20078;-74
2023/05/13 06:33:22;;;;;;;9.55;6.47;;;;;;;11.14;100.00;98868.13;4183596;28;20637;-74
2023/05/13 06:35:22;;;;;;;9.48;6.25;;;;;;;11.06;100.00;98869.16;4184395;28;20487;-74
2023/05/13 06:37:23;;;;;;;7.15;6.20;;;;;;;11.12;100.00;98866.91;4184229;28;20029;-74
2023/05/13 06:39:23;;;;;;;7.72;6.80;;;;;;;11.22;100.00;98875.34;4182229;28;20048;-74
2023/05/13 06:41:23;;;;;;;8.32;7.30;;;;;;;11.29;100.00;98871.91;4184406;28;20052;-74
2023/05/13 06:43:23;;;;;;;10.23;6.90;;;;;;;11.33;100.00;98869.16;4177262;28;20477;-74
2023/05/13 06:45:24;;;;;;;8.65;7.18;;;;;;;11.39;100.00;98867.69;4183368;28;20365;-73
2023/05/13 06:47:25;;;;;;;8.30;6.30;;;;;;;11.52;100.00;98877.38;4178157;28;20642;-73
2023/05/13 06:49:25;;;;;;;9.80;6.57;;;;;;;11.63;100.00;98875.56;4180208;28;20028;-74
2023/05/13 06:51:27;;;;;;;7.93;6.68;;;;;;;11.73;100.00;98868.53;4182962;28;20025;-73
2023/05/13 06:53:27;;;;;;;9.27;6.53;;;;;;;11.79;100.00;98878.13;4176300;28;20553;-73
2023/05/13 06:55:27;;;;;;;8.38;7.20;;;;;;;11.85;100.00;98870.31;4184004;28;20036;-74
2023/05/13 06:57:28;;;;;;;8.02;6.35;;;;;;;11.91;100.00;98874.34;4180014;28;20125;-73
2023/05/13 06:59:29;;;;;;;7.57;6.55;;;;;;;11.98;100.00;98877.22;4185313;28;20493;-73
2023/05/13 07:01:29;;;;;;;8.30;7.20;;;;;;;12.04;100.00;98876.50;4187374;28;20031;-74
2023/05/13 07:03:29;;;;;;;8.27;6.68;;;;;;;12.10;100.00;98871.44;4182902;28;20024;-73
2023/05/13 07:05:33;;;;;;;7.65;6.50;;;;;;;12.15;100.00;98865.53;4179487;28;20043;-74
2023/05/13 07:07:33;;;;;;;11.07;7.43;;;;;;;12.18;100.00;98862.00;4182795;28;20457;-74
2023/05/13 07:09:34;;;;;;;11.73;6.40;;;;;;;12.23;100.00;98860.84;4185165;28;20025;-74
2023/05/13 07:11:37;;;;;;;8.00;6.38;;;;;;;12.23;100.00;98860.84;4179795;28;20119;-74
2023/05/13 07:13:37;;;;;;;9.10;6.07;;;;;;;12.29;100.00;98860.13;4181397;28;20024;-73
2023/05/13 07:15:38;;;;;;;6.15;5.53;;;;;;;12.33;100.00;98860.19;4185674;28;20028;-74
2023/05/13 07:17:38;;;;;;;6.18;5.57;;;;;;;12.43;100.00;98855.94;4182593;28;20055;-74
2023/05/13 07:19:39;;;;;;;9.80;5.75;;;;;;;12.48;100.00;98858.34;4184502;28;20457;-74
2023/05/13 07:21:39;;;;;;;7.03;5.93;;;;;;;12.53;100.00;98853.25;4177365;28;20615;-74
2023/05/13 07:23:39;;;;;;;6.85;5.65;;;;;;;12.57;100.00;98859.63;4184386;28;20147;-74
2023/05/13 07:25:40;;;;;;;8.13;5.65;;;;;;;12.64;100.00;98854.13;4182539;28;20037;-73
2023/05/13 07:27:40;;;;;;;6.75;5.70;;;;;;;12.74;100.00;98858.19;4178417;28;20082;-73
2023/05/13 07:29:40;;;;;;;7.22;5.75;;;;;;;12.85;100.00;98858.28;4180150;28;20033;-73
2023/05/13 07:31:41;;;;;;;8.18;5.63;;;;;;;12.93;100.00;98854.41;4182546;28;20285;-73
2023/05/13 07:33:41;;;;;;;9.50;6.18;;;;;;;12.97;100.00;98858.00;4183085;28;20021;-73
2023/05/13 07:35:42;;;;;;;6.05;5.40;;;;;;;13.01;100.00;98853.28;4182965;28;20036;-73
2023/05/13 07:37:45;;;;;;;7.70;5.70;;;;;;;13.08;100.00;98846.97;4182810;28;20029;-73
2023/05/13 07:39:45;;;;;;;6.65;5.10;;;;;;;13.20;100.00;98849.47;4182679;28;20040;-74
2023/05/13 07:41:46;;;;;;;6.32;5.25;;;;;;;13.28;100.00;98859.44;4179638;28;20854;-74
2023/05/13 07:43:46;;;;;;;7.82;4.47;;;;;;;13.34;100.00;98852.34;4179942;28;20335;-74
2023/05/13 07:45:46;;;;;;;6.63;4.68;;;;;;;13.38;100.00;98858.72;4181523;28;20033;-74
2023/05/13 07:47:47;;;;;;;5.47;4.15;;;;;;;13.44;100.00;98853.59;4180684;28;20028;-74
2023/05/13 07:49:48;;;;;;;4.88;3.45;;;;;;;13.48;100.00;98852.41;4179273;28;20028;-74
2023/05/13 07:51:49;;;;;;;6.95;4.95;;;;;;;13.56;100.00;98858.00;4179653;28;20065;-73
2023/05/13 07:53:51;;;;;;;5.13;4.40;;;;;;;13.66;100.00;98846.97;4180057;28;20072;-74
2023/05/13 07:55:51;;;;;;;7.05;4.10;;;;;;;13.73;100.00;98854.53;4178129;28;20484;-74
2023/05/13 07:57:52;;;;;;;4.95;3.72;;;;;;;13.86;100.00;98861.34;4177427;28;20040;-74
2023/05/13 07:59:53;;;;;;;8.23;4.28;;;;;;;13.94;100.00;98859.41;4178548;28;20024;-73
2023/05/13 08:01:53;;;;;;;6.10;4.10;;;;;;;14.02;100.00;98861.03;4178748;28;20033;-74
2023/05/13 08:03:53;;;;;;;5.35;3.45;;;;;;;14.11;97.98;98858.66;4180280;28;20784;-74
2023/05/13 08:05:54;;;;;;;4.32;3.92;;;;;;;14.18;97.93;98855.91;4180465;28;20111;-74
2023/05/13 08:07:54;;;;;;;6.78;3.60;;;;;;;14.29;100.00;98858.72;4182056;28;20033;-74
2023/05/13 08:09:54;;;;;;;5.88;4.03;;;;;;;14.36;100.00;98857.94;4180273;28;20480;-74
2023/05/13 08:11:55;;;;;;;4.15;3.67;;;;;;;14.40;99.09;98848.44;4182511;28;20024;-74
2023/05/13 08:13:55;;;;;;;4.18;3.75;;;;;;;14.41;100.00;98852.00;4181835;28;20051;-74
2023/05/13 08:15:59;;;;;;;4.63;4.22;;;;;;;14.48;100.00;98855.63;4181586;28;20032;-74
2023/05/13 08:17:59;;;;;;;5.55;3.78;;;;;;;14.48;98.78;98855.63;4179774;28;20365;-73
2023/05/13 08:20:00;;;;;;;5.90;4.07;;;;;;;14.48;97.43;98861.19;4179757;28;20111;-73
2023/05/13 08:22:01;;;;;;;4.25;3.78;;;;;;;14.49;94.48;98850.84;4182529;28;20048;-74
2023/05/13 08:24:01;;;;;;;4.50;4.10;;;;;;;14.52;95.04;98850.84;4182882;28;20028;-74
2023/05/13 08:26:01;;;;;;;4.28;3.88;;;;;;;14.57;95.30;98856.03;4178840;28;20028;-74
2023/05/13 08:28:02;;;;;;;4.03;3.63;;;;;;;14.64;98.43;98854.44;4179985;28;20036;-74
2023/05/13 08:30:04;;;;;;;4.45;3.92;;;;;;;14.66;94.38;98841.72;4183578;28;20131;-74
2023/05/13 08:32:05;;;;;;;4.32;3.83;;;;;;;14.77;94.98;98848.09;4174598;28;20028;-74
2023/05/13 08:34:06;;;;;;;5.72;3.67;;;;;;;14.87;96.16;98850.06;4177709;28;20039;-74
2023/05/13 08:36:06;;;;;;;4.22;3.60;;;;;;;14.96;94.78;98848.88;4182515;28;20142;-73
2023/05/13 08:38:07;;;;;;;5.63;4.15;;;;;;;14.99;100.00;98842.53;4184630;28;20032;-73
2023/05/13 08:40:09;;;;;;;5.28;4.20;;;;;;;15.10;98.10;98846.91;4179082;28;20029;-73
2023/05/13 08:42:10;;;;;;;;;;;;;;;15.17;94.00;98844.09;4178663;28;20032;-73
2023/05/13 08:44:12;;;;;;;5.72;4.00;;;;;;;15.05;91.94;98852.84;4177486;28;19908;-73
2023/05/13 08:46:15;;;;;;;4.78;4.03;;;;;;;15.08;92.45;98849.28;4186188;28;20244;-73
2023/05/13 08:48:18;;;;;;;5.22;4.57;;;;;;;15.18;93.34;98847.69;4181417;28;20420;-73
2023/05/13 08:50:19;;;;;;;7.50;4.72;;;;;;;15.27;95.29;98845.28;4182438;28;20320;-73
2023/05/13 08:52:21;;;;;;;4.45;3.97;;;;;;;15.31;93.81;98846.09;4177288;28;20045;-73
2023/05/13 08:54:23;;;;;;;4.63;3.85;;;;;;;15.30;92.29;98841.69;4177987;28;20508;-74
2023/05/13 08:56:27;;;;;;;5.22;4.32;;;;;;;15.32;92.06;98835.72;4183660;28;20508;-73
2023/05/13 08:58:27;;;;;;;5.88;4.53;;;;;;;15.38;93.37;98834.91;4177991;28;20307;-73
2023/05/13 09:00:27;;;;;;;5.35;4.45;;;;;;;15.37;95.07;98847.25;4181700;28;20481;-74
2023/05/13 09:02:28;;;;;;;6.85;4.80;;;;;;;15.44;94.40;98835.28;4183452;28;20472;-74
2023/05/13 09:04:28;;;;;;;5.95;4.47;;;;;;;15.43;93.98;98830.91;4179286;28;20033;-74
2023/05/13 09:06:29;;;;;;;6.25;4.75;;;;;;;15.38;94.25;98832.09;4179262;28;20025;-74
2023/05/13 09:08:31;;;;;;;6.18;4.90;;;;;;;15.45;97.62;98840.47;4186824;28;20020;-74
2023/05/13 09:10:31;;;;;;;6.15;4.40;;;;;;;15.47;93.62;98828.91;4181014;28;20492;-74
2023/05/13 09:12:51;;;;;;;5.55;4.35;;;;;;;15.52;91.46;98834.06;4177525;28;20029;-74
2023/05/13 09:14:51;;;;;;;5.82;4.38;;;;;;;15.64;92.25;98824.53;4176737;28;20349;-73
2023/05/13 09:16:56;;;;;;;5.82;4.40;;;;;;;15.72;94.38;98820.50;4181401;28;20017;-74
2023/05/13 09:18:57;;;;;;;6.65;4.50;;;;;;;15.82;92.64;98835.63;4180342;28;20040;-74
2023/05/13 09:21:22;;;;;;;5.50;4.50;;;;;;;15.83;89.11;98826.84;4177784;28;20033;-74
2023/05/13 09:23:22;;;;;;;5.55;4.22;;;;;;;15.66;91.65;98838.84;4182044;28;20255;-73
2023/05/13 09:25:24;;;;;;;5.68;4.50;;;;;;;15.78;90.07;98820.88;4179296;28;20025;-73
2023/05/13 09:27:41;;;;;;;6.03;4.32;;;;;;;15.89;92.45;98825.22;4181188;28;20480;-74